Edson, Wisconsin
Current Conditions -  °F | °C
As of 8:56 PM on Thursday 27 Nov 2014 (Local Time) from KEAU Reporting Station
Clear Clear  
Wind Chill: -2°   Ceiling: Unl
Heat Index:   Visibility: 10mi
Dew Point: -1°   Wind: 5mph
Humidity: 70%   Direction: 150°SSE
Pressure: 30.33"   Gusts: NA
Location:  44.9343°N, 91.0261°W
Report Text: KEAU 280256Z AUTO 15004KT 10SM CLR M14/M18 A3033 RMK AO2 SLP297 T11391183 56018
Loading
Personal Weather Stations






























Interactive Weather Map New forecast layout! Learn more

10-Day Weather Forecast

Advertisements
Track Severe Weather on mobile